Time;durP1;ratioP1;P1;durP2;ratioP2;P2;SDS_P1;SDS_P2;PMS_P1;PMS_P2;Temp;Humidity;BMP_temperature;BMP_pressure;BME280_temperature;BME280_humidity;BME280_pressure;Samples;Min_cycle;Max_cycle;Signal;HPM_P1;HPM_P2
2022/07/25 00:00:11;;;;;;;10.50;8.10;;;;;;;;;;5047293;28;20498;-79
2022/07/25 00:02:56;;;;;;;10.60;8.60;;;;;;;;;;5054879;28;20049;-79
2022/07/25 00:05:41;;;;;;;13.25;8.98;;;;;;;;;;5055728;28;20037;-81
2022/07/25 00:08:27;;;;;;;14.45;9.30;;;;;;;;;;5054591;28;20049;-81
2022/07/25 00:11:16;;;;;;;14.27;9.93;;;;;;;;;;5055462;28;20045;-80
2022/07/25 00:14:01;;;;;;;13.82;9.48;;;;;;;;;;5061965;28;20049;-80
2022/07/25 00:16:47;;;;;;;16.75;9.73;;;;;;;;;;5046519;28;20041;-79
2022/07/25 00:19:33;;;;;;;14.52;9.88;;;;;;;;;;5046697;28;20045;-80
2022/07/25 00:22:21;;;;;;;12.35;10.02;;;;;;;;;;5054629;28;20045;-81
2022/07/25 00:25:07;;;;;;;12.23;10.27;;;;;;;;;;5054834;28;20045;-80
2022/07/25 00:27:54;;;;;;;11.70;9.40;;;;;;;;;;5054970;28;20401;-79
2022/07/25 00:30:39;;;;;;;17.55;10.20;;;;;;;;;;5054433;28;20044;-79
2022/07/25 00:33:24;;;;;;;13.20;10.32;;;;;;;;;;5054834;28;20045;-80
2022/07/25 00:36:10;;;;;;;13.35;10.27;;;;;;;;;;5054838;28;20041;-80
2022/07/25 00:38:55;;;;;;;15.75;10.18;;;;;;;;;;5054578;28;20045;-80
2022/07/25 00:41:43;;;;;;;18.17;10.35;;;;;;;;;;5054844;28;20488;-80
2022/07/25 00:44:31;;;;;;;12.23;10.25;;;;;;;;;;5053636;28;20049;-80
2022/07/25 00:47:17;;;;;;;11.00;9.88;;;;;;;;;;5054809;28;20045;-79
2022/07/25 00:50:03;;;;;;;14.82;10.45;;;;;;;;;;5054778;28;20041;-80
2022/07/25 00:52:49;;;;;;;11.48;9.85;;;;;;;;;;5054048;28;20045;-79
2022/07/25 00:55:34;;;;;;;14.32;11.43;;;;;;;;;;5054357;28;20037;-79
2022/07/25 00:58:19;;;;;;;17.77;10.90;;;;;;;;;;5061317;28;20045;-81
2022/07/25 01:01:05;;;;;;;14.48;10.30;;;;;;;;;;5054336;28;20040;-85
2022/07/25 01:03:51;;;;;;;14.50;9.90;;;;;;;;;;5055139;28;20041;-84
2022/07/25 01:06:36;;;;;;;14.23;9.70;;;;;;;;;;5025655;28;20429;-85
2022/07/25 01:09:22;;;;;;;15.43;9.40;;;;;;;;;;5054700;28;20041;-85
2022/07/25 01:12:07;;;;;;;11.98;9.82;;;;;;;;;;5054373;28;20466;-86
2022/07/25 01:14:56;;;;;;;11.13;8.70;;;;;;;;;;5032276;28;20053;-84
2022/07/25 01:17:42;;;;;;;11.40;9.77;;;;;;;;;;5047653;28;20021;-85
2022/07/25 01:20:29;;;;;;;13.05;9.93;;;;;;;;;;5055549;28;20033;-85
2022/07/25 01:23:15;;;;;;;13.88;10.32;;;;;;;;;;5055919;28;20044;-86
2022/07/25 01:26:00;;;;;;;16.73;9.95;;;;;;;;;;5045396;28;20052;-86
2022/07/25 01:28:46;;;;;;;13.65;10.93;;;;;;;;;;5053520;28;20045;-86
2022/07/25 01:31:31;;;;;;;13.77;11.00;;;;;;;;;;5054332;28;20044;-86
2022/07/25 01:34:17;;;;;;;14.07;10.63;;;;;;;;;;5031164;28;20041;-86
2022/07/25 01:37:03;;;;;;;18.27;9.93;;;;;;;;;;5054196;28;20045;-85
2022/07/25 01:39:48;;;;;;;12.40;9.63;;;;;;;;;;5053861;28;20510;-85
2022/07/25 01:42:34;;;;;;;13.95;9.68;;;;;;;;;;5044428;28;20045;-85
2022/07/25 01:45:19;;;;;;;10.68;9.10;;;;;;;;;;5053674;28;20056;-86
2022/07/25 01:48:05;;;;;;;11.63;9.27;;;;;;;;;;5044813;28;20037;-86
2022/07/25 01:50:51;;;;;;;14.50;9.25;;;;;;;;;;5047927;28;20490;-87
2022/07/25 01:53:36;;;;;;;11.80;8.98;;;;;;;;;;5031494;28;20061;-86
2022/07/25 01:56:21;;;;;;;14.40;8.68;;;;;;;;;;5037983;28;20045;-85
2022/07/25 01:59:07;;;;;;;10.85;8.35;;;;;;;;;;5053553;28;20401;-85
2022/07/25 02:01:53;;;;;;;11.82;8.43;;;;;;;;;;5053364;28;20045;-85
2022/07/25 02:04:38;;;;;;;11.13;9.05;;;;;;;;;;5054125;28;20048;-86
2022/07/25 02:07:24;;;;;;;9.13;8.07;;;;;;;;;;5053989;28;20041;-86
2022/07/25 02:10:10;;;;;;;13.38;8.45;;;;;;;;;;5052989;28;20045;-86
2022/07/25 02:12:56;;;;;;;11.25;8.95;;;;;;;;;;5031013;28;20049;-85
2022/07/25 02:15:41;;;;;;;14.25;8.93;;;;;;;;;;5053108;28;20033;-85
2022/07/25 02:18:28;;;;;;;15.20;9.35;;;;;;;;;;5053487;28;20414;-86
2022/07/25 02:21:13;;;;;;;10.55;8.50;;;;;;;;;;5053328;28;20478;-86
2022/07/25 02:23:58;;;;;;;10.27;9.02;;;;;;;;;;5044649;28;20045;-87
2022/07/25 02:26:44;;;;;;;10.82;9.43;;;;;;;;;;5045008;28;20053;-87
2022/07/25 02:29:31;;;;;;;14.40;9.23;;;;;;;;;;5045227;28;20045;-86
2022/07/25 02:32:16;;;;;;;12.30;8.95;;;;;;;;;;5030069;28;20044;-87
2022/07/25 02:35:04;;;;;;;13.32;9.05;;;;;;;;;;5030417;28;20045;-86
2022/07/25 02:37:49;;;;;;;12.27;8.70;;;;;;;;;;5038003;28;20402;-86
2022/07/25 02:40:35;;;;;;;12.88;8.00;;;;;;;;;;5045100;28;20394;-86
2022/07/25 02:43:21;;;;;;;10.63;7.38;;;;;;;;;;5056666;28;20037;-85
2022/07/25 02:46:06;;;;;;;12.10;7.30;;;;;;;;;;5037424;28;20425;-87
2022/07/25 02:48:51;;;;;;;10.13;7.60;;;;;;;;;;5037891;28;20041;-86
2022/07/25 02:51:36;;;;;;;9.70;7.32;;;;;;;;;;5053098;28;20045;-86
2022/07/25 02:54:22;;;;;;;10.57;7.85;;;;;;;;;;5044348;28;20044;-86
2022/07/25 02:57:08;;;;;;;13.02;7.85;;;;;;;;;;5038708;28;20049;-86
2022/07/25 02:59:53;;;;;;;11.65;8.40;;;;;;;;;;5044158;28;20037;-86
2022/07/25 03:02:39;;;;;;;8.75;7.85;;;;;;;;;;5053327;28;20049;-86
2022/07/25 03:05:25;;;;;;;10.10;7.88;;;;;;;;;;5053349;28;20390;-85
2022/07/25 03:08:10;;;;;;;10.88;8.00;;;;;;;;;;5037165;28;20045;-86
2022/07/25 03:10:56;;;;;;;12.77;7.95;;;;;;;;;;5055125;28;20033;-85
2022/07/25 03:13:41;;;;;;;10.40;8.07;;;;;;;;;;5033867;28;20040;-85
2022/07/25 03:16:26;;;;;;;16.48;8.50;;;;;;;;;;5041672;28;20398;-86
2022/07/25 03:19:13;;;;;;;14.20;8.38;;;;;;;;;;5041377;28;20406;-86
2022/07/25 03:21:58;;;;;;;10.50;7.97;;;;;;;;;;5055771;28;20040;-86
2022/07/25 03:24:44;;;;;;;17.27;7.00;;;;;;;;;;5056921;28;20462;-86
2022/07/25 03:27:29;;;;;;;10.82;7.32;;;;;;;;;;5033294;28;20041;-86
2022/07/25 03:30:15;;;;;;;13.80;6.80;;;;;;;;;;5056002;28;20044;-87
2022/07/25 03:33:00;;;;;;;8.38;6.75;;;;;;;;;;5056637;28;20049;-86
2022/07/25 03:35:46;;;;;;;10.82;6.90;;;;;;;;;;5056436;28;20029;-86
2022/07/25 03:38:32;;;;;;;12.00;7.57;;;;;;;;;;5075210;28;20048;-87
2022/07/25 03:41:17;;;;;;;11.10;6.82;;;;;;;;;;5043053;28;20045;-87
2022/07/25 03:44:03;;;;;;;8.25;6.75;;;;;;;;;;5040845;28;20041;-82
2022/07/25 03:46:54;;;;;;;8.93;6.75;;;;;;;;;;5055712;28;20041;-88
2022/07/25 03:49:40;;;;;;;10.32;8.05;;;;;;;;;;5055321;28;20394;-85
2022/07/25 03:52:25;;;;;;;9.25;8.27;;;;;;;;;;5056026;28;20045;-85
2022/07/25 03:55:11;;;;;;;13.07;9.38;;;;;;;;;;5047288;28;20434;-84
2022/07/25 03:57:56;;;;;;;11.68;9.57;;;;;;;;;;5054844;28;20040;-85
2022/07/25 04:00:42;;;;;;;15.55;9.35;;;;;;;;;;5055706;28;20049;-85
2022/07/25 04:03:28;;;;;;;13.77;10.95;;;;;;;;;;5054990;28;20041;-85
2022/07/25 04:06:13;;;;;;;20.17;10.60;;;;;;;;;;5055838;28;20049;-85
2022/07/25 04:08:59;;;;;;;14.73;11.02;;;;;;;;;;5054725;28;20045;-84
2022/07/25 04:11:44;;;;;;;15.50;10.60;;;;;;;;;;5058170;28;20398;-85
2022/07/25 04:14:30;;;;;;;17.00;10.75;;;;;;;;;;5040337;28;20486;-84
2022/07/25 04:17:16;;;;;;;12.18;10.63;;;;;;;;;;5056341;28;20049;-84
2022/07/25 04:20:01;;;;;;;12.73;10.85;;;;;;;;;;5047915;28;20041;-82
2022/07/25 04:22:47;;;;;;;17.50;11.35;;;;;;;;;;5040127;28;20056;-84
2022/07/25 04:25:33;;;;;;;15.15;10.90;;;;;;;;;;5059745;28;20045;-85
2022/07/25 04:28:18;;;;;;;15.10;11.98;;;;;;;;;;5054538;28;20044;-83
2022/07/25 04:31:04;;;;;;;14.13;11.65;;;;;;;;;;5055524;28;20053;-85
2022/07/25 04:33:49;;;;;;;14.05;11.68;;;;;;;;;;5046351;28;20478;-84
2022/07/25 04:36:35;;;;;;;14.20;12.38;;;;;;;;;;5054990;28;20049;-84
2022/07/25 04:39:20;;;;;;;16.05;12.20;;;;;;;;;;5053749;28;20044;-84
2022/07/25 04:42:06;;;;;;;13.63;11.85;;;;;;;;;;5054913;28;20041;-84
2022/07/25 04:44:51;;;;;;;13.75;11.90;;;;;;;;;;5054369;28;20402;-83
2022/07/25 04:47:37;;;;;;;19.27;15.27;;;;;;;;;;5054038;28;20045;-83
2022/07/25 04:50:23;;;;;;;18.98;14.60;;;;;;;;;;5039777;28;20041;-85
2022/07/25 04:53:08;;;;;;;17.23;13.85;;;;;;;;;;5038451;28;20040;-85
2022/07/25 04:55:53;;;;;;;15.82;12.63;;;;;;;;;;5039171;28;20052;-85
2022/07/25 04:58:38;;;;;;;14.07;12.00;;;;;;;;;;5054397;28;20476;-85
2022/07/25 05:01:23;;;;;;;13.00;11.60;;;;;;;;;;5038489;28;20045;-86
2022/07/25 05:04:08;;;;;;;16.92;12.60;;;;;;;;;;5045670;28;20048;-85
2022/07/25 05:06:54;;;;;;;18.13;12.32;;;;;;;;;;5053660;28;20049;-85
2022/07/25 05:09:40;;;;;;;15.75;11.88;;;;;;;;;;5052965;28;20049;-86
2022/07/25 05:12:25;;;;;;;19.05;11.88;;;;;;;;;;5038680;28;20045;-84
2022/07/25 05:15:11;;;;;;;17.60;11.63;;;;;;;;;;5052807;28;20045;-86
2022/07/25 05:17:57;;;;;;;13.25;10.48;;;;;;;;;;5054051;28;20438;-85
2022/07/25 05:20:42;;;;;;;15.50;10.80;;;;;;;;;;5045536;28;20037;-86
2022/07/25 05:23:28;;;;;;;23.67;10.90;;;;;;;;;;5052944;28;20045;-84
2022/07/25 05:26:13;;;;;;;15.30;9.70;;;;;;;;;;5054063;28;20053;-84
2022/07/25 05:28:59;;;;;;;9.93;7.97;;;;;;;;;;5038213;28;20037;-83
2022/07/25 05:31:45;;;;;;;11.65;8.00;;;;;;;;;;5053430;28;20041;-84
2022/07/25 05:34:30;;;;;;;10.38;8.02;;;;;;;;;;5052740;28;20041;-83
2022/07/25 05:37:16;;;;;;;11.07;8.85;;;;;;;;;;5053330;28;20049;-83
2022/07/25 05:40:01;;;;;;;11.60;9.18;;;;;;;;;;5045450;28;20045;-84
2022/07/25 05:42:47;;;;;;;11.35;8.77;;;;;;;;;;5038783;28;20049;-85
2022/07/25 05:45:32;;;;;;;11.40;8.20;;;;;;;;;;5053360;28;20045;-84
2022/07/25 05:48:18;;;;;;;14.00;8.57;;;;;;;;;;5053003;28;20053;-85
2022/07/25 05:51:04;;;;;;;14.18;9.20;;;;;;;;;;5061642;28;20033;-86
2022/07/25 05:53:49;;;;;;;10.60;9.50;;;;;;;;;;5072662;28;20041;-83
2022/07/25 05:56:35;;;;;;;10.25;8.98;;;;;;;;;;5057846;28;20040;-83
2022/07/25 05:59:20;;;;;;;10.95;8.70;;;;;;;;;;5054323;28;20071;-82
2022/07/25 06:02:06;;;;;;;13.25;10.20;;;;;;;;;;5053316;28;20045;-84
2022/07/25 06:04:51;;;;;;;11.77;9.70;;;;;;;;;;5052886;28;20045;-83
2022/07/25 06:07:37;;;;;;;13.60;8.90;;;;;;;;;;5053469;28;20037;-84
2022/07/25 06:10:23;;;;;;;8.90;8.02;;;;;;;;;;5053401;28;20486;-83
2022/07/25 06:13:08;;;;;;;13.02;9.32;;;;;;;;;;5038084;28;20045;-84
2022/07/25 06:15:53;;;;;;;12.25;9.50;;;;;;;;;;5056696;28;20044;-83
2022/07/25 06:18:38;;;;;;;11.30;8.57;;;;;;;;;;5044860;28;20070;-83
2022/07/25 06:21:24;;;;;;;11.77;8.60;;;;;;;;;;5053402;28;20045;-84
2022/07/25 06:24:10;;;;;;;9.77;8.75;;;;;;;;;;5053187;28;20398;-84
2022/07/25 06:26:55;;;;;;;12.23;8.77;;;;;;;;;;5052214;28;20041;-83
2022/07/25 06:29:40;;;;;;;12.90;8.45;;;;;;;;;;5045081;28;20390;-83
2022/07/25 06:32:26;;;;;;;13.05;8.55;;;;;;;;;;5053003;28;20049;-83
2022/07/25 06:35:12;;;;;;;13.10;8.10;;;;;;;;;;5052924;28;20053;-82
2022/07/25 06:37:57;;;;;;;11.43;8.45;;;;;;;;;;5053141;28;20048;-83
2022/07/25 06:40:43;;;;;;;9.93;7.25;;;;;;;;;;5052805;28;20040;-82
2022/07/25 06:43:28;;;;;;;10.02;7.15;;;;;;;;;;5054141;28;20473;-83
2022/07/25 06:46:14;;;;;;;11.10;7.10;;;;;;;;;;5056879;28;20045;-83
2022/07/25 06:49:00;;;;;;;10.40;6.97;;;;;;;;;;5057140;28;20049;-82
2022/07/25 06:51:45;;;;;;;10.13;6.85;;;;;;;;;;5056927;28;20049;-84
2022/07/25 06:54:34;;;;;;;9.02;6.60;;;;;;;;;;5063782;28;20033;-82
2022/07/25 06:57:20;;;;;;;8.02;6.68;;;;;;;;;;5057065;28;20041;-82
2022/07/25 07:00:08;;;;;;;12.73;7.30;;;;;;;;;;5056096;28;20045;-81
2022/07/25 07:02:57;;;;;;;11.77;6.70;;;;;;;;;;5056610;28;20037;-81
2022/07/25 07:05:42;;;;;;;10.00;6.38;;;;;;;;;;5056621;28;20041;-82
2022/07/25 07:08:28;;;;;;;8.90;6.65;;;;;;;;;;5062808;28;20048;-82
2022/07/25 07:11:15;;;;;;;17.95;9.00;;;;;;;;;;5057199;28;20478;-82
2022/07/25 07:14:01;;;;;;;16.77;11.20;;;;;;;;;;5055341;28;20052;-82
2022/07/25 07:16:47;;;;;;;28.52;22.27;;;;;;;;;;5062876;28;20048;-83
2022/07/25 07:19:32;;;;;;;10.68;8.05;;;;;;;;;;5055612;28;20049;-82
2022/07/25 07:22:18;;;;;;;20.15;15.20;;;;;;;;;;5056302;28;20056;-82
2022/07/25 07:25:04;;;;;;;12.30;8.27;;;;;;;;;;5056674;28;20474;-82
2022/07/25 07:27:50;;;;;;;10.65;6.90;;;;;;;;;;5063318;28;20393;-83
2022/07/25 07:30:36;;;;;;;8.30;5.85;;;;;;;;;;5056497;28;20045;-81
2022/07/25 07:33:21;;;;;;;12.68;6.32;;;;;;;;;;5056429;28;20036;-82
2022/07/25 07:36:06;;;;;;;8.85;5.97;;;;;;;;;;5055859;28;20041;-82
2022/07/25 07:38:51;;;;;;;6.88;5.88;;;;;;;;;;5056015;28;20045;-82
2022/07/25 07:41:37;;;;;;;7.68;5.63;;;;;;;;;;5055806;28;20040;-82
2022/07/25 07:44:22;;;;;;;9.85;6.15;;;;;;;;;;5055176;28;20037;-82
2022/07/25 07:47:08;;;;;;;9.30;6.05;;;;;;;;;;5062606;28;20049;-81
2022/07/25 07:49:53;;;;;;;9.88;6.15;;;;;;;;;;5062475;28;20049;-80
2022/07/25 07:52:39;;;;;;;7.82;5.70;;;;;;;;;;5055866;28;20049;-83
2022/07/25 07:55:44;;;;;;;11.68;5.88;;;;;;;;;;5054753;28;20044;-86
2022/07/25 07:58:29;;;;;;;;;;;;;;;;;;5055966;28;20044;-81
2022/07/25 08:01:15;;;;;;;7.03;5.22;;;;;;;;;;5057839;28;19912;-80
2022/07/25 08:04:00;;;;;;;7.07;4.95;;;;;;;;;;5055087;28;20045;-81
2022/07/25 08:06:46;;;;;;;9.18;5.22;;;;;;;;;;5062595;28;20044;-82
2022/07/25 08:09:31;;;;;;;8.23;5.70;;;;;;;;;;5066702;28;20021;-83
2022/07/25 08:12:17;;;;;;;8.43;4.97;;;;;;;;;;5074248;28;20048;-84
2022/07/25 08:15:03;;;;;;;9.38;5.28;;;;;;;;;;5057050;28;20033;-81
2022/07/25 08:17:49;;;;;;;5.70;5.03;;;;;;;;;;5062223;28;20049;-82
2022/07/25 08:20:35;;;;;;;10.15;5.20;;;;;;;;;;5055432;28;20041;-81
2022/07/25 08:23:21;;;;;;;6.20;5.30;;;;;;;;;;5055453;28;20381;-82
2022/07/25 08:26:06;;;;;;;10.98;5.38;;;;;;;;;;5055379;28;20049;-82
2022/07/25 08:28:52;;;;;;;10.55;5.28;;;;;;;;;;5061799;28;20045;-82
2022/07/25 08:31:38;;;;;;;6.28;4.43;;;;;;;;;;5062471;28;20056;-80
2022/07/25 08:34:24;;;;;;;6.18;4.80;;;;;;;;;;5054870;28;20045;-82
2022/07/25 08:37:09;;;;;;;7.55;4.88;;;;;;;;;;5054616;28;20053;-82
2022/07/25 08:39:55;;;;;;;7.65;4.13;;;;;;;;;;5054554;28;20081;-81
2022/07/25 08:42:41;;;;;;;4.75;3.97;;;;;;;;;;5054639;28;20049;-83
2022/07/25 08:45:27;;;;;;;6.40;4.07;;;;;;;;;;5061546;28;20478;-82
2022/07/25 08:48:16;;;;;;;5.80;3.90;;;;;;;;;;5061605;28;20044;-81
2022/07/25 08:51:02;;;;;;;4.93;3.88;;;;;;;;;;5054721;28;20490;-82
2022/07/25 08:53:49;;;;;;;9.50;4.32;;;;;;;;;;5054036;28;20048;-81
2022/07/25 08:56:35;;;;;;;5.75;3.92;;;;;;;;;;5058707;28;20045;-81
2022/07/25 08:59:20;;;;;;;7.95;4.35;;;;;;;;;;5061049;28;20045;-83
2022/07/25 09:02:09;;;;;;;6.15;4.35;;;;;;;;;;5061346;28;20037;-81
2022/07/25 09:04:56;;;;;;;5.40;4.40;;;;;;;;;;5067128;28;20049;-82
2022/07/25 09:07:42;;;;;;;5.53;4.20;;;;;;;;;;5060330;28;20049;-81
2022/07/25 09:10:27;;;;;;;6.20;4.40;;;;;;;;;;5061145;28;20513;-82
2022/07/25 09:13:14;;;;;;;7.10;4.75;;;;;;;;;;5052204;28;20045;-82
2022/07/25 09:16:01;;;;;;;8.77;4.60;;;;;;;;;;5060899;28;20049;-81
2022/07/25 09:18:47;;;;;;;5.07;4.50;;;;;;;;;;5060851;28;20049;-80
2022/07/25 09:21:33;;;;;;;8.00;4.70;;;;;;;;;;5054459;28;20041;-82
2022/07/25 09:24:21;;;;;;;6.68;4.43;;;;;;;;;;5054011;28;20421;-83
2022/07/25 09:27:09;;;;;;;5.18;4.13;;;;;;;;;;5053456;28;20061;-82
2022/07/25 09:29:55;;;;;;;6.20;4.47;;;;;;;;;;5054133;28;20969;-83
2022/07/25 09:32:41;;;;;;;7.30;4.53;;;;;;;;;;5053230;28;20049;-82
2022/07/25 09:35:39;;;;;;;3.88;3.42;;;;;;;;;;5053453;28;20045;-81
2022/07/25 09:38:24;;;;;;;6.30;4.40;;;;;;;;;;5054297;28;20498;-83
2022/07/25 09:41:11;;;;;;;6.70;4.22;;;;;;;;;;5053636;28;20055;-81
2022/07/25 09:43:56;;;;;;;12.38;4.25;;;;;;;;;;5053222;28;20045;-81
2022/07/25 09:46:42;;;;;;;4.65;3.88;;;;;;;;;;5053675;28;20045;-81
2022/07/25 09:49:44;;;;;;;5.35;4.10;;;;;;;;;;5057115;28;20037;-81
2022/07/25 09:52:30;;;;;;;4.32;3.92;;;;;;;;;;5056175;28;20040;-81
2022/07/25 09:55:16;;;;;;;4.40;4.00;;;;;;;;;;5055145;28;20037;-82
2022/07/25 09:58:01;;;;;;;5.80;4.18;;;;;;;;;;5054625;28;20041;-82
2022/07/25 10:00:48;;;;;;;5.95;4.20;;;;;;;;;;5053524;28;20482;-83
2022/07/25 10:04:06;;;;;;;11.32;4.75;;;;;;;;;;5053639;28;20471;-83
2022/07/25 10:07:03;;;;;;;5.70;4.40;;;;;;;;;;5028050;28;20045;-81
2022/07/25 10:09:53;;;;;;;6.60;4.15;;;;;;;;;;5054090;28;20041;-81
2022/07/25 10:12:38;;;;;;;10.15;4.45;;;;;;;;;;5053581;28;20045;-81
2022/07/25 10:15:24;;;;;;;6.30;4.78;;;;;;;;;;5053820;28;20037;-83
2022/07/25 10:18:10;;;;;;;6.05;4.40;;;;;;;;;;5053585;28;20481;-82
2022/07/25 10:21:09;;;;;;;9.15;4.20;;;;;;;;;;5057225;28;20389;-83
2022/07/25 10:24:02;;;;;;;6.63;4.15;;;;;;;;;;5056694;28;20045;-82
2022/07/25 10:26:52;;;;;;;6.93;4.22;;;;;;;;;;5057144;28;20382;-82
2022/07/25 10:29:39;;;;;;;6.45;4.20;;;;;;;;;;5080266;28;20037;-82
2022/07/25 10:32:34;;;;;;;7.03;4.10;;;;;;;;;;5063466;28;20414;-83
2022/07/25 10:35:19;;;;;;;12.77;4.27;;;;;;;;;;5057854;28;20045;-82
2022/07/25 10:38:06;;;;;;;7.22;4.18;;;;;;;;;;5057349;28;20056;-82
2022/07/25 10:40:52;;;;;;;6.60;4.40;;;;;;;;;;5058172;28;20037;-81
2022/07/25 10:43:39;;;;;;;5.10;4.10;;;;;;;;;;5057477;28;20390;-81
2022/07/25 10:46:29;;;;;;;5.25;3.83;;;;;;;;;;5042280;28;20040;-81
2022/07/25 10:49:24;;;;;;;9.68;4.93;;;;;;;;;;5056661;28;20398;-79
2022/07/25 10:52:19;;;;;;;4.20;3.80;;;;;;;;;;5056353;28;20072;-81
2022/07/25 10:55:08;;;;;;;4.70;3.58;;;;;;;;;;5056652;28;20037;-83
2022/07/25 10:58:05;;;;;;;4.78;3.90;;;;;;;;;;5058319;28;20040;-80
2022/07/25 11:00:51;;;;;;;6.20;3.72;;;;;;;;;;5056464;28;20053;-81
2022/07/25 11:03:36;;;;;;;6.90;3.95;;;;;;;;;;5063122;28;20049;-81
2022/07/25 11:06:38;;;;;;;7.45;4.07;;;;;;;;;;5057404;28;20037;-82
2022/07/25 11:09:27;;;;;;;4.15;3.75;;;;;;;;;;5063121;28;20048;-80
2022/07/25 11:12:15;;;;;;;4.88;3.78;;;;;;;;;;5056257;28;20041;-81
2022/07/25 11:15:06;;;;;;;6.13;3.95;;;;;;;;;;5048877;28;20044;-80
2022/07/25 11:17:52;;;;;;;6.05;4.30;;;;;;;;;;5063133;28;20040;-81
2022/07/25 11:20:37;;;;;;;4.55;3.95;;;;;;;;;;5056489;28;20390;-80
2022/07/25 11:23:23;;;;;;;4.40;4.00;;;;;;;;;;5062641;28;20037;-80
2022/07/25 11:26:11;;;;;;;4.90;3.78;;;;;;;;;;5063088;28;20053;-80
2022/07/25 11:28:56;;;;;;;4.97;3.95;;;;;;;;;;5056230;28;20037;-82
2022/07/25 11:31:42;;;;;;;6.35;4.00;;;;;;;;;;5055467;28;20041;-81
2022/07/25 11:34:31;;;;;;;4.40;3.92;;;;;;;;;;5056475;28;20045;-80
2022/07/25 11:37:17;;;;;;;5.80;4.10;;;;;;;;;;5055266;28;20045;-80
2022/07/25 11:40:03;;;;;;;6.82;4.40;;;;;;;;;;5056488;28;20049;-82
2022/07/25 11:42:54;;;;;;;6.13;4.28;;;;;;;;;;5062209;28;20048;-82
2022/07/25 11:45:40;;;;;;;7.97;4.22;;;;;;;;;;5063061;28;20045;-83
2022/07/25 11:48:37;;;;;;;7.10;3.65;;;;;;;;;;5062958;28;20052;-81
2022/07/25 11:51:22;;;;;;;6.97;4.20;;;;;;;;;;5056775;28;20049;-81
2022/07/25 11:54:09;;;;;;;5.70;4.30;;;;;;;;;;5056242;28;20041;-83
2022/07/25 11:56:54;;;;;;;7.03;4.32;;;;;;;;;;5055163;28;20093;-83
2022/07/25 11:59:41;;;;;;;6.10;4.35;;;;;;;;;;5055689;28;20494;-81
2022/07/25 12:02:29;;;;;;;5.20;4.00;;;;;;;;;;5055578;28;20406;-82
2022/07/25 12:05:19;;;;;;;8.73;4.25;;;;;;;;;;5056268;28;20041;-83
2022/07/25 12:08:12;;;;;;;6.18;4.05;;;;;;;;;;5055519;28;20045;-83
2022/07/25 12:10:59;;;;;;;8.57;3.83;;;;;;;;;;5055917;28;20049;-81
2022/07/25 12:13:45;;;;;;;7.82;4.10;;;;;;;;;;5055494;28;20041;-84
2022/07/25 12:16:31;;;;;;;5.15;4.30;;;;;;;;;;5055355;28;20478;-82
2022/07/25 12:19:19;;;;;;;6.80;4.20;;;;;;;;;;5062443;28;20045;-81
2022/07/25 12:22:06;;;;;;;10.43;3.72;;;;;;;;;;5054620;28;20037;-81
2022/07/25 12:24:51;;;;;;;4.18;3.78;;;;;;;;;;5054538;28;20049;-80
2022/07/25 12:27:38;;;;;;;6.90;3.95;;;;;;;;;;5040121;28;20041;-80
2022/07/25 12:30:25;;;;;;;5.10;4.15;;;;;;;;;;5061251;28;20037;-83
2022/07/25 12:33:11;;;;;;;4.72;3.85;;;;;;;;;;5039656;28;20048;-82
2022/07/25 12:35:58;;;;;;;8.80;3.90;;;;;;;;;;5055909;28;20045;-82
2022/07/25 12:38:43;;;;;;;4.22;3.83;;;;;;;;;;5054828;28;20041;-82
2022/07/25 12:41:29;;;;;;;5.95;4.20;;;;;;;;;;5061558;28;20041;-82
2022/07/25 12:44:14;;;;;;;6.32;4.13;;;;;;;;;;5056413;28;20049;-83
2022/07/25 12:47:00;;;;;;;5.38;3.85;;;;;;;;;;5077374;28;20049;-84
2022/07/25 12:49:46;;;;;;;7.15;4.43;;;;;;;;;;5063381;28;20040;-82
2022/07/25 12:52:31;;;;;;;10.15;4.22;;;;;;;;;;5057774;28;20041;-83
2022/07/25 12:55:18;;;;;;;8.68;5.50;;;;;;;;;;5061117;28;20045;-81
2022/07/25 12:58:03;;;;;;;4.75;4.25;;;;;;;;;;5061506;28;20044;-81
2022/07/25 13:00:49;;;;;;;6.95;4.53;;;;;;;;;;5054068;28;20045;-81
2022/07/25 13:03:34;;;;;;;7.20;4.38;;;;;;;;;;5061127;28;20044;-81
2022/07/25 13:06:20;;;;;;;9.30;4.53;;;;;;;;;;5055265;28;20485;-82
2022/07/25 13:09:06;;;;;;;7.22;4.40;;;;;;;;;;5060780;28;20390;-82
2022/07/25 13:11:52;;;;;;;10.80;4.38;;;;;;;;;;5054663;28;20398;-84
2022/07/25 13:14:38;;;;;;;10.85;4.32;;;;;;;;;;5060895;28;20040;-83
2022/07/25 13:17:23;;;;;;;7.80;4.18;;;;;;;;;;5053171;28;20045;-81
2022/07/25 13:20:10;;;;;;;5.40;4.28;;;;;;;;;;5060338;28;20041;-82
2022/07/25 13:22:54;;;;;;;6.68;4.25;;;;;;;;;;5053525;28;20391;-82
2022/07/25 13:25:39;;;;;;;6.57;4.30;;;;;;;;;;5059909;28;20084;-83
2022/07/25 13:28:25;;;;;;;9.80;4.70;;;;;;;;;;5053945;28;20486;-81
2022/07/25 13:31:10;;;;;;;5.30;4.28;;;;;;;;;;5055052;28;20056;-83
2022/07/25 13:33:56;;;;;;;6.95;4.28;;;;;;;;;;5054490;28;20041;-83
2022/07/25 13:36:41;;;;;;;8.73;4.95;;;;;;;;;;5038987;28;20045;-82
2022/07/25 13:39:27;;;;;;;6.28;4.70;;;;;;;;;;5053705;28;20049;-82
2022/07/25 13:42:13;;;;;;;5.18;4.18;;;;;;;;;;5053860;28;20041;-83
2022/07/25 13:44:58;;;;;;;6.55;4.20;;;;;;;;;;5053414;28;20041;-83
2022/07/25 13:47:44;;;;;;;8.23;4.78;;;;;;;;;;5052484;28;20037;-81
2022/07/25 13:50:30;;;;;;;7.57;5.25;;;;;;;;;;5059956;28;20421;-81
2022/07/25 13:53:16;;;;;;;5.38;4.47;;;;;;;;;;5051825;28;20044;-80
2022/07/25 13:56:02;;;;;;;7.20;4.90;;;;;;;;;;5053442;28;20049;-82
2022/07/25 13:58:47;;;;;;;7.22;4.88;;;;;;;;;;5060558;28;20041;-79
2022/07/25 14:01:33;;;;;;;7.30;5.03;;;;;;;;;;5053033;28;20386;-82
2022/07/25 14:04:19;;;;;;;7.88;5.13;;;;;;;;;;5053824;28;20044;-82
2022/07/25 14:07:04;;;;;;;8.52;5.10;;;;;;;;;;5053260;28;20045;-82
2022/07/25 14:09:50;;;;;;;10.38;4.53;;;;;;;;;;5053662;28;20048;-80
2022/07/25 14:12:37;;;;;;;5.13;4.63;;;;;;;;;;5054032;28;20041;-81
2022/07/25 14:15:23;;;;;;;5.15;4.50;;;;;;;;;;5059956;28;20041;-82
2022/07/25 14:18:08;;;;;;;6.85;4.78;;;;;;;;;;5054358;28;20045;-82
2022/07/25 14:20:54;;;;;;;9.27;4.45;;;;;;;;;;5038570;28;20045;-81
2022/07/25 14:23:39;;;;;;;6.63;4.80;;;;;;;;;;5052677;28;20489;-80
2022/07/25 14:26:27;;;;;;;5.38;4.38;;;;;;;;;;5053619;28;20406;-84
2022/07/25 14:29:12;;;;;;;6.75;4.65;;;;;;;;;;5059454;28;20490;-81
2022/07/25 14:31:57;;;;;;;5.72;4.10;;;;;;;;;;5060123;28;20053;-82
2022/07/25 14:34:44;;;;;;;10.90;4.63;;;;;;;;;;5060465;28;20053;-84
2022/07/25 14:37:30;;;;;;;6.78;4.35;;;;;;;;;;5053521;28;20045;-84
2022/07/25 14:40:16;;;;;;;7.25;4.55;;;;;;;;;;5053773;28;20044;-83
2022/07/25 14:43:02;;;;;;;6.32;4.35;;;;;;;;;;5053513;28;20041;-82
2022/07/25 14:45:47;;;;;;;8.52;5.07;;;;;;;;;;5039075;28;20487;-83
2022/07/25 14:48:34;;;;;;;7.07;5.10;;;;;;;;;;5052982;28;20048;-82
2022/07/25 14:51:19;;;;;;;7.05;4.75;;;;;;;;;;5059976;28;20506;-82
2022/07/25 14:54:05;;;;;;;6.53;5.03;;;;;;;;;;5059850;28;20053;-82
2022/07/25 14:56:51;;;;;;;7.03;4.93;;;;;;;;;;5053321;28;20049;-81
2022/07/25 14:59:37;;;;;;;5.28;4.70;;;;;;;;;;5052945;28;20045;-83
2022/07/25 15:02:23;;;;;;;6.38;4.70;;;;;;;;;;5053755;28;20041;-83
2022/07/25 15:05:08;;;;;;;6.40;4.90;;;;;;;;;;5077212;28;20033;-82
2022/07/25 15:07:54;;;;;;;6.32;4.93;;;;;;;;;;5064431;28;20044;-82
2022/07/25 15:10:40;;;;;;;7.95;4.40;;;;;;;;;;5058822;28;20033;-81
2022/07/25 15:13:25;;;;;;;5.50;4.70;;;;;;;;;;5057160;28;20049;-81
2022/07/25 15:16:12;;;;;;;4.60;4.20;;;;;;;;;;5062843;28;20045;-80
2022/07/25 15:18:58;;;;;;;4.90;4.38;;;;;;;;;;5063977;28;20049;-82
2022/07/25 15:21:44;;;;;;;5.68;4.22;;;;;;;;;;5056821;28;20045;-81
2022/07/25 15:24:29;;;;;;;8.85;5.05;;;;;;;;;;5056605;28;20045;-81
2022/07/25 15:27:15;;;;;;;5.90;4.82;;;;;;;;;;5056385;28;20045;-81
2022/07/25 15:30:00;;;;;;;6.88;4.50;;;;;;;;;;5055919;28;20049;-82
2022/07/25 15:32:46;;;;;;;8.13;4.68;;;;;;;;;;5056288;28;20045;-82
2022/07/25 15:35:31;;;;;;;6.45;4.50;;;;;;;;;;5056650;28;20049;-81
2022/07/25 15:38:18;;;;;;;5.35;4.28;;;;;;;;;;5062929;28;20045;-81
2022/07/25 15:41:03;;;;;;;5.75;4.60;;;;;;;;;;5056207;28;20401;-83
2022/07/25 15:43:49;;;;;;;5.30;4.57;;;;;;;;;;5055903;28;20490;-81
2022/07/25 15:46:38;;;;;;;9.07;4.50;;;;;;;;;;5047023;28;20049;-81
2022/07/25 15:49:23;;;;;;;11.07;4.72;;;;;;;;;;5054766;28;20481;-83
2022/07/25 15:52:09;;;;;;;8.18;4.32;;;;;;;;;;5056154;28;20052;-83
2022/07/25 15:54:55;;;;;;;6.20;4.50;;;;;;;;;;5054298;28;20041;-83
2022/07/25 15:57:40;;;;;;;6.65;4.95;;;;;;;;;;5055565;28;20049;-81
2022/07/25 16:00:27;;;;;;;6.10;4.65;;;;;;;;;;5055530;28;20037;-83
2022/07/25 16:03:13;;;;;;;6.88;4.63;;;;;;;;;;5055918;28;20048;-83
2022/07/25 16:05:58;;;;;;;6.53;4.75;;;;;;;;;;5056199;28;20041;-81
2022/07/25 16:08:46;;;;;;;10.68;4.72;;;;;;;;;;5060598;28;20041;-83
2022/07/25 16:11:41;;;;;;;5.40;4.72;;;;;;;;;;5063835;28;20045;-81
2022/07/25 16:14:27;;;;;;;6.30;4.72;;;;;;;;;;5055554;28;20037;-79
2022/07/25 16:17:12;;;;;;;8.35;4.90;;;;;;;;;;5063051;28;20053;-83
2022/07/25 16:19:58;;;;;;;7.03;4.40;;;;;;;;;;5056456;28;20390;-82
2022/07/25 16:22:44;;;;;;;12.82;4.97;;;;;;;;;;5055908;28;20049;-80
2022/07/25 16:25:30;;;;;;;5.72;4.90;;;;;;;;;;5055354;28;20045;-80
2022/07/25 16:28:16;;;;;;;4.88;4.20;;;;;;;;;;5055063;28;20049;-83